Time;durP1;ratioP1;P1;durP2;ratioP2;P2;SDS_P1;SDS_P2;PMS_P1;PMS_P2;Temp;Humidity;BMP_temperature;BMP_pressure;BME280_temperature;BME280_humidity;BME280_pressure;Samples;Min_cycle;Max_cycle;Signal;HPM_P1;HPM_P2
2021/06/04 00:02:03;;;;;;;2.85;1.98;;;;;;;;;;10278753;28;20044;-57
2021/06/04 00:07:01;;;;;;;8.35;2.47;;;;;;;;;;10278936;28;20285;-57
2021/06/04 00:12:00;;;;;;;8.02;2.30;;;;;;;;;;10278838;28;20060;-57
2021/06/04 00:16:59;;;;;;;9.23;2.35;;;;;;;;;;10277644;28;20445;-56
2021/06/04 00:22:00;;;;;;;5.15;2.10;;;;;;;;;;10278289;28;20041;-56
2021/06/04 00:26:58;;;;;;;3.83;2.20;;;;;;;;;;10277835;28;20090;-57
2021/06/04 00:31:55;;;;;;;3.53;2.00;;;;;;;;;;10277745;28;20429;-57
2021/06/04 00:36:54;;;;;;;4.63;2.00;;;;;;;;;;10277789;28;20052;-58
2021/06/04 00:41:54;;;;;;;2.92;2.58;;;;;;;;;;10274958;28;20055;-57
2021/06/04 00:46:52;;;;;;;5.05;2.45;;;;;;;;;;10276430;28;20084;-57
2021/06/04 00:51:51;;;;;;;5.97;2.20;;;;;;;;;;10277338;28;20064;-58
2021/06/04 00:56:51;;;;;;;5.20;2.42;;;;;;;;;;10275476;28;20498;-57
2021/06/04 01:01:51;;;;;;;5.47;2.78;;;;;;;;;;10276993;28;20064;-58
2021/06/04 01:06:53;;;;;;;3.10;2.20;;;;;;;;;;10274654;28;20056;-57
2021/06/04 01:11:57;;;;;;;3.10;2.80;;;;;;;;;;10276574;28;20052;-57
2021/06/04 01:16:59;;;;;;;4.43;1.90;;;;;;;;;;10274118;28;20430;-58
2021/06/04 01:21:58;;;;;;;5.35;2.85;;;;;;;;;;10275095;28;20056;-57
2021/06/04 01:27:01;;;;;;;4.95;2.75;;;;;;;;;;10274353;28;20049;-57
2021/06/04 01:32:01;;;;;;;7.05;2.55;;;;;;;;;;10274399;28;20436;-57
2021/06/04 01:37:03;;;;;;;5.38;2.33;;;;;;;;;;10276125;28;20418;-57
2021/06/04 01:42:11;;;;;;;4.63;2.33;;;;;;;;;;10274479;28;20057;-56
2021/06/04 01:47:11;;;;;;;8.30;2.35;;;;;;;;;;10274437;28;20103;-57
2021/06/04 01:52:14;;;;;;;3.97;2.40;;;;;;;;;;10273632;28;20067;-58
2021/06/04 01:57:21;;;;;;;6.70;2.67;;;;;;;;;;10274241;28;20045;-56
2021/06/04 02:02:20;;;;;;;5.13;2.20;;;;;;;;;;10273776;28;20303;-57
2021/06/04 02:07:18;;;;;;;5.25;2.65;;;;;;;;;;10275559;28;20092;-57
2021/06/04 02:12:18;;;;;;;10.30;3.95;;;;;;;;;;10274338;28;20048;-57
2021/06/04 02:17:26;;;;;;;7.18;3.25;;;;;;;;;;10273944;28;20587;-57
2021/06/04 02:22:27;;;;;;;9.88;3.25;;;;;;;;;;10272974;28;20083;-58
2021/06/04 02:27:33;;;;;;;6.28;3.80;;;;;;;;;;10273226;28;20056;-57
2021/06/04 02:32:35;;;;;;;7.68;2.88;;;;;;;;;;10274496;28;20099;-58
2021/06/04 02:37:35;;;;;;;8.40;3.13;;;;;;;;;;10277098;28;20052;-57
2021/06/04 02:42:38;;;;;;;10.70;3.05;;;;;;;;;;10280574;28;20060;-58
2021/06/04 02:47:38;;;;;;;12.00;2.97;;;;;;;;;;10281354;28;20514;-58
2021/06/04 02:52:38;;;;;;;5.78;2.33;;;;;;;;;;10279829;28;20049;-56
2021/06/04 02:57:38;;;;;;;4.45;2.65;;;;;;;;;;10279960;28;20052;-58
2021/06/04 03:02:38;;;;;;;5.47;2.72;;;;;;;;;;10289924;28;20417;-57
2021/06/04 03:07:39;;;;;;;10.43;3.22;;;;;;;;;;10298914;28;20139;-58
2021/06/04 03:12:43;;;;;;;8.32;2.90;;;;;;;;;;10297686;28;20565;-57
2021/06/04 03:17:43;;;;;;;9.52;3.20;;;;;;;;;;10297687;28;20084;-57
2021/06/04 03:22:43;;;;;;;13.32;3.00;;;;;;;;;;10290186;28;20077;-58
2021/06/04 03:27:43;;;;;;;9.48;3.45;;;;;;;;;;10291085;28;20080;-57
2021/06/04 03:32:48;;;;;;;12.40;2.97;;;;;;;;;;10301044;28;20056;-57
2021/06/04 03:37:46;;;;;;;8.68;3.85;;;;;;;;;;10299816;28;20057;-57
2021/06/04 03:42:45;;;;;;;13.98;3.72;;;;;;;;;;10292749;28;20143;-57
2021/06/04 03:47:43;;;;;;;6.78;2.88;;;;;;;;;;10272457;28;20084;-56
2021/06/04 03:52:43;;;;;;;10.30;2.80;;;;;;;;;;10276361;28;20916;-58
2021/06/04 03:57:40;;;;;;;6.38;2.85;;;;;;;;;;10277226;28;20076;-57
2021/06/04 04:02:40;;;;;;;5.60;3.20;;;;;;;;;;10277578;28;20080;-57
2021/06/04 04:07:38;;;;;;;5.88;2.60;;;;;;;;;;10277094;28;20073;-57
2021/06/04 04:12:36;;;;;;;4.13;2.70;;;;;;;;;;10276694;28;20080;-57
2021/06/04 04:17:35;;;;;;;9.20;3.10;;;;;;;;;;10275841;28;20076;-56
2021/06/04 04:22:34;;;;;;;9.80;3.65;;;;;;;;;;10274571;28;20083;-57
2021/06/04 04:27:32;;;;;;;14.30;3.53;;;;;;;;;;10273716;28;20093;-57
2021/06/04 04:32:30;;;;;;;12.23;6.00;;;;;;;;;;10275208;28;20076;-56
2021/06/04 04:37:29;;;;;;;12.60;3.65;;;;;;;;;;10276344;28;20081;-56
2021/06/04 04:42:28;;;;;;;46.35;36.55;;;;;;;;;;10275913;28;20474;-55
2021/06/04 04:47:26;;;;;;;23.92;12.10;;;;;;;;;;10275487;28;20091;-53
2021/06/04 04:52:24;;;;;;;9.93;5.10;;;;;;;;;;10275862;28;20088;-55
2021/06/04 04:57:22;;;;;;;13.05;4.43;;;;;;;;;;10274927;28;20092;-54
2021/06/04 05:02:22;;;;;;;22.50;17.02;;;;;;;;;;10274771;28;20425;-52
2021/06/04 05:07:20;;;;;;;10.93;4.53;;;;;;;;;;10273409;28;20110;-55
2021/06/04 05:12:18;;;;;;;7.70;3.95;;;;;;;;;;10274899;28;20041;-51
2021/06/04 05:17:16;;;;;;;9.05;4.38;;;;;;;;;;10275022;28;20060;-56
2021/06/04 05:22:16;;;;;;;5.43;3.28;;;;;;;;;;10273863;28;20091;-53
2021/06/04 05:27:13;;;;;;;4.63;2.72;;;;;;;;;;10273744;28;20069;-56
2021/06/04 05:32:11;;;;;;;9.98;4.53;;;;;;;;;;10274785;28;20083;-56
2021/06/04 05:37:09;;;;;;;9.75;4.03;;;;;;;;;;10273124;28;20386;-55
2021/06/04 05:42:09;;;;;;;6.53;3.47;;;;;;;;;;10274478;28;20077;-53
2021/06/04 05:47:09;;;;;;;10.82;4.10;;;;;;;;;;10274198;28;20056;-55
2021/06/04 05:52:09;;;;;;;6.72;3.17;;;;;;;;;;10274079;28;20064;-54
2021/06/04 05:57:08;;;;;;;43.17;34.92;;;;;;;;;;10273882;28;20049;-54
2021/06/04 06:02:07;;;;;;;9.40;5.82;;;;;;;;;;10273689;28;20073;-55
2021/06/04 06:07:04;;;;;;;8.90;3.55;;;;;;;;;;10273567;28;20060;-57
2021/06/04 06:12:06;;;;;;;9.15;6.18;;;;;;;;;;10279080;28;20052;-55
2021/06/04 06:17:05;;;;;;;4.55;2.83;;;;;;;;;;10281655;28;20084;-53
2021/06/04 06:22:04;;;;;;;4.32;3.67;;;;;;;;;;10281265;28;20049;-56
2021/06/04 06:27:02;;;;;;;7.07;3.47;;;;;;;;;;10281314;28;20081;-56
2021/06/04 06:31:59;;;;;;;7.95;3.38;;;;;;;;;;10280856;28;20076;-52
2021/06/04 06:36:59;;;;;;;5.28;3.85;;;;;;;;;;10280761;28;20597;-55
2021/06/04 06:41:58;;;;;;;9.88;3.60;;;;;;;;;;10280512;28;20056;-53
2021/06/04 06:46:56;;;;;;;3.67;3.38;;;;;;;;;;10280209;28;20037;-54
2021/06/04 06:51:54;;;;;;;4.80;3.83;;;;;;;;;;10279918;28;20208;-53
2021/06/04 06:56:55;;;;;;;6.22;3.58;;;;;;;;;;10279672;28;20068;-55
2021/06/04 07:01:53;;;;;;;6.25;3.13;;;;;;;;;;10279682;28;20049;-53
2021/06/04 07:06:51;;;;;;;10.00;4.18;;;;;;;;;;10279385;28;20103;-55
2021/06/04 07:11:53;;;;;;;12.65;4.80;;;;;;;;;;10279144;28;20442;-55
2021/06/04 07:16:52;;;;;;;6.45;3.28;;;;;;;;;;10279527;28;20513;-55
2021/06/04 07:21:50;;;;;;;5.93;3.45;;;;;;;;;;10278379;28;20049;-55
2021/06/04 07:26:51;;;;;;;4.13;2.67;;;;;;;;;;10278218;28;20052;-54
2021/06/04 07:31:49;;;;;;;7.13;3.55;;;;;;;;;;10278497;28;20080;-53
2021/06/04 07:36:50;;;;;;;5.18;2.95;;;;;;;;;;10278938;28;20040;-55
2021/06/04 07:41:48;;;;;;;5.07;3.47;;;;;;;;;;10278504;28;20080;-55
2021/06/04 07:46:47;;;;;;;3.80;2.75;;;;;;;;;;10277922;28;20072;-53
2021/06/04 07:51:46;;;;;;;4.32;2.85;;;;;;;;;;10277781;28;20671;-54
2021/06/04 07:56:46;;;;;;;4.68;2.28;;;;;;;;;;10277695;28;20083;-55
2021/06/04 08:01:44;;;;;;;4.53;2.88;;;;;;;;;;10277587;28;20088;-57
2021/06/04 08:06:42;;;;;;;5.68;3.30;;;;;;;;;;10277208;28;20065;-54
2021/06/04 08:11:41;;;;;;;10.27;3.42;;;;;;;;;;10277113;28;20080;-55
2021/06/04 08:16:41;;;;;;;5.43;2.80;;;;;;;;;;10276622;28;20072;-56
2021/06/04 08:21:41;;;;;;;7.82;2.75;;;;;;;;;;10276855;28;20376;-54
2021/06/04 08:26:39;;;;;;;10.30;6.40;;;;;;;;;;10275938;28;20037;-52
2021/06/04 08:31:37;;;;;;;5.47;3.03;;;;;;;;;;10276066;28;20080;-53
2021/06/04 08:36:37;;;;;;;6.38;2.65;;;;;;;;;;10274997;28;20036;-55
2021/06/04 08:41:38;;;;;;;11.50;9.07;;;;;;;;;;10275888;28;20052;-55
2021/06/04 08:46:37;;;;;;;15.50;3.53;;;;;;;;;;10275856;28;20045;-55
2021/06/04 08:51:38;;;;;;;10.48;4.75;;;;;;;;;;10275269;28;20083;-54
2021/06/04 08:56:40;;;;;;;9.43;2.95;;;;;;;;;;10275519;28;20048;-56
2021/06/04 09:01:41;;;;;;;8.70;4.90;;;;;;;;;;10275361;28;20072;-55
2021/06/04 09:06:42;;;;;;;5.90;2.85;;;;;;;;;;10275188;28;20076;-54
2021/06/04 09:11:40;;;;;;;2.75;2.45;;;;;;;;;;10274932;28;20076;-55
2021/06/04 09:16:45;;;;;;;8.68;3.88;;;;;;;;;;10274653;28;20084;-55
2021/06/04 09:21:42;;;;;;;;;;;;;;;;;;10275022;28;20048;-55
2021/06/04 09:26:41;;;;;;;11.98;3.90;;;;;;;;;;10274909;28;19924;-54
2021/06/04 09:31:42;;;;;;;11.95;9.77;;;;;;;;;;10274403;28;20075;-55
2021/06/04 09:36:46;;;;;;;13.32;10.70;;;;;;;;;;10274375;28;20057;-57
2021/06/04 09:41:47;;;;;;;5.25;3.55;;;;;;;;;;10274170;28;20087;-56
2021/06/04 09:46:50;;;;;;;13.32;6.00;;;;;;;;;;10279459;28;20518;-55
2021/06/04 09:51:56;;;;;;;8.80;4.07;;;;;;;;;;10282570;28;20072;-54
2021/06/04 09:57:06;;;;;;;17.80;12.30;;;;;;;;;;10282232;28;20512;-56
2021/06/04 10:02:21;;;;;;;10.90;3.90;;;;;;;;;;10282125;28;20048;-54
2021/06/04 10:07:20;;;;;;;10.93;6.13;;;;;;;;;;10281801;28;20041;-56
2021/06/04 10:12:20;;;;;;;9.15;3.00;;;;;;;;;;10281962;28;20065;-56
2021/06/04 10:17:48;;;;;;;15.63;10.80;;;;;;;;;;10281376;28;20407;-53
2021/06/04 10:22:46;;;;;;;10.98;3.08;;;;;;;;;;10280485;28;20510;-56
2021/06/04 10:27:46;;;;;;;8.63;5.00;;;;;;;;;;10281397;28;20037;-56
2021/06/04 10:32:47;;;;;;;14.38;6.65;;;;;;;;;;10281043;28;20068;-58
2021/06/04 10:37:48;;;;;;;5.45;4.05;;;;;;;;;;10280695;28;20045;-58
2021/06/04 10:43:01;;;;;;;20.30;12.20;;;;;;;;;;10280763;28;20045;-56
2021/06/04 10:48:04;;;;;;;10.20;3.40;;;;;;;;;;10280696;28;20518;-56
2021/06/04 10:53:05;;;;;;;8.77;6.07;;;;;;;;;;10280244;28;20088;-55
2021/06/04 10:58:11;;;;;;;10.52;6.97;;;;;;;;;;10278309;28;20064;-54
2021/06/04 11:03:13;;;;;;;6.82;3.20;;;;;;;;;;10279840;28;20080;-56
2021/06/04 11:08:19;;;;;;;6.55;2.83;;;;;;;;;;10279968;28;20052;-56
2021/06/04 11:13:27;;;;;;;8.48;4.38;;;;;;;;;;10278731;28;20083;-55
2021/06/04 11:18:31;;;;;;;7.28;4.68;;;;;;;;;;10279697;28;20060;-58
2021/06/04 11:23:30;;;;;;;9.77;5.15;;;;;;;;;;10279382;28;20069;-56
2021/06/04 11:28:36;;;;;;;10.95;5.30;;;;;;;;;;10278549;28;20048;-54
2021/06/04 11:33:36;;;;;;;8.57;5.22;;;;;;;;;;10279108;28;20497;-57
2021/06/04 11:38:40;;;;;;;6.72;4.13;;;;;;;;;;10278775;28;20041;-55
2021/06/04 11:43:42;;;;;;;6.30;3.03;;;;;;;;;;10278606;28;20528;-53
2021/06/04 11:48:40;;;;;;;4.85;3.13;;;;;;;;;;10278339;28;20068;-55
2021/06/04 11:53:39;;;;;;;7.00;3.63;;;;;;;;;;10277742;28;20076;-53
2021/06/04 11:58:49;;;;;;;7.65;3.72;;;;;;;;;;10277840;28;20056;-54
2021/06/04 12:03:49;;;;;;;6.60;3.35;;;;;;;;;;10277735;28;20077;-54
2021/06/04 12:08:47;;;;;;;8.40;2.80;;;;;;;;;;10277540;28;20048;-53
2021/06/04 12:13:47;;;;;;;7.15;3.50;;;;;;;;;;10277592;28;20064;-56
2021/06/04 12:18:58;;;;;;;7.88;4.43;;;;;;;;;;10277355;28;20041;-53
2021/06/04 12:23:56;;;;;;;3.80;2.70;;;;;;;;;;10277161;28;20048;-52
2021/06/04 12:28:54;;;;;;;4.68;3.20;;;;;;;;;;10276753;28;20082;-53
2021/06/04 12:33:58;;;;;;;4.85;3.05;;;;;;;;;;10276583;28;20084;-55
2021/06/04 12:39:15;;;;;;;3.20;2.90;;;;;;;;;;10276399;28;20056;-55
2021/06/04 12:44:14;;;;;;;5.32;3.45;;;;;;;;;;10276430;28;20461;-55
2021/06/04 12:49:13;;;;;;;8.27;2.30;;;;;;;;;;10275850;28;20080;-55
2021/06/04 12:54:12;;;;;;;6.35;2.40;;;;;;;;;;10276225;28;20051;-55
2021/06/04 12:59:14;;;;;;;10.77;4.10;;;;;;;;;;10276199;28;20048;-55
2021/06/04 13:04:15;;;;;;;12.82;6.10;;;;;;;;;;10275588;28;20045;-56
2021/06/04 13:09:23;;;;;;;11.40;4.82;;;;;;;;;;10275466;28;20083;-55
2021/06/04 13:14:23;;;;;;;6.88;3.65;;;;;;;;;;10275245;28;20080;-56
2021/06/04 13:19:25;;;;;;;9.85;4.43;;;;;;;;;;10274951;28;20338;-53
2021/06/04 13:24:25;;;;;;;6.38;4.22;;;;;;;;;;10275084;28;20052;-52
2021/06/04 13:29:28;;;;;;;4.85;2.90;;;;;;;;;;10274868;28;20080;-54
2021/06/04 13:34:30;;;;;;;11.85;3.55;;;;;;;;;;10274920;28;20049;-54
2021/06/04 13:39:29;;;;;;;6.50;3.42;;;;;;;;;;10274863;28;20091;-54
2021/06/04 13:44:33;;;;;;;8.57;3.30;;;;;;;;;;10273513;28;20425;-54
2021/06/04 13:49:37;;;;;;;7.63;4.57;;;;;;;;;;10274615;28;20083;-54
2021/06/04 13:54:36;;;;;;;4.13;3.10;;;;;;;;;;10274725;28;20103;-56
2021/06/04 13:59:33;;;;;;;8.00;3.03;;;;;;;;;;10273262;28;20077;-55
2021/06/04 14:04:40;;;;;;;5.47;2.72;;;;;;;;;;10274228;28;20075;-54
2021/06/04 14:09:38;;;;;;;6.88;2.53;;;;;;;;;;10272920;28;20037;-54
2021/06/04 14:14:36;;;;;;;6.28;2.75;;;;;;;;;;10273056;28;20096;-53
2021/06/04 14:19:36;;;;;;;5.85;2.55;;;;;;;;;;10273182;28;20072;-54
2021/06/04 14:24:41;;;;;;;10.43;3.55;;;;;;;;;;10282331;28;20076;-55
2021/06/04 14:29:41;;;;;;;8.43;4.20;;;;;;;;;;10285914;28;20087;-47
2021/06/04 14:34:44;;;;;;;7.77;6.00;;;;;;;;;;10298562;28;20092;-53
2021/06/04 14:39:44;;;;;;;7.72;4.57;;;;;;;;;;10300663;28;20076;-54
2021/06/04 14:44:41;;;;;;;10.30;2.70;;;;;;;;;;10300352;28;20075;-54
2021/06/04 14:49:39;;;;;;;7.72;2.70;;;;;;;;;;10300838;28;20041;-52
2021/06/04 14:54:37;;;;;;;9.30;5.13;;;;;;;;;;10301892;28;20064;-54
2021/06/04 14:59:37;;;;;;;11.13;6.35;;;;;;;;;;10300840;28;20048;-54
2021/06/04 15:04:35;;;;;;;8.68;3.75;;;;;;;;;;10299782;28;20068;-55
2021/06/04 15:09:33;;;;;;;11.88;4.45;;;;;;;;;;10295647;28;20076;-56
2021/06/04 15:14:31;;;;;;;4.75;3.15;;;;;;;;;;10299782;28;20084;-55
2021/06/04 15:19:31;;;;;;;6.78;4.45;;;;;;;;;;10278781;28;20095;-53
2021/06/04 15:24:29;;;;;;;4.95;3.30;;;;;;;;;;10284448;28;20033;-54
2021/06/04 15:29:29;;;;;;;5.40;2.95;;;;;;;;;;10292557;28;20072;-56
2021/06/04 15:34:28;;;;;;;5.32;2.92;;;;;;;;;;10295756;28;20077;-56
2021/06/04 15:39:27;;;;;;;9.50;2.72;;;;;;;;;;10294888;28;20072;-57
2021/06/04 15:44:25;;;;;;;8.43;5.30;;;;;;;;;;10288234;28;20076;-57
2021/06/04 15:49:24;;;;;;;10.07;5.63;;;;;;;;;;10279862;28;20080;-55
2021/06/04 15:54:22;;;;;;;8.95;4.70;;;;;;;;;;10275695;28;20096;-58
2021/06/04 15:59:21;;;;;;;8.07;5.10;;;;;;;;;;10276884;28;20033;-56
2021/06/04 16:04:19;;;;;;;6.68;3.20;;;;;;;;;;10277758;28;20053;-56
2021/06/04 16:09:17;;;;;;;11.45;7.68;;;;;;;;;;10277653;28;20053;-56
2021/06/04 16:14:15;;;;;;;6.80;4.53;;;;;;;;;;10276079;28;20093;-56
2021/06/04 16:19:14;;;;;;;6.53;4.00;;;;;;;;;;10277895;28;20411;-54
2021/06/04 16:24:12;;;;;;;4.53;2.70;;;;;;;;;;10277842;28;20064;-55
2021/06/04 16:29:10;;;;;;;10.00;5.45;;;;;;;;;;10288219;28;20091;-56
2021/06/04 16:34:09;;;;;;;5.00;3.97;;;;;;;;;;10274722;28;20076;-52
2021/06/04 16:39:09;;;;;;;6.38;4.43;;;;;;;;;;10301955;28;20076;-57
2021/06/04 16:44:06;;;;;;;10.57;6.28;;;;;;;;;;10290727;28;20072;-55
2021/06/04 16:49:04;;;;;;;17.92;12.13;;;;;;;;;;10300969;28;20080;-59
2021/06/04 16:54:03;;;;;;;8.25;4.00;;;;;;;;;;10279684;28;20084;-56
2021/06/04 16:59:02;;;;;;;8.88;5.20;;;;;;;;;;10277376;28;20072;-56
2021/06/04 17:04:02;;;;;;;12.32;6.35;;;;;;;;;;10277442;28;20056;-53
2021/06/04 17:09:00;;;;;;;20.75;16.00;;;;;;;;;;10277070;28;20072;-57
2021/06/04 17:13:58;;;;;;;13.25;6.43;;;;;;;;;;10294687;28;20485;-54
2021/06/04 17:18:57;;;;;;;12.85;6.55;;;;;;;;;;10305155;28;20055;-57
2021/06/04 17:23:56;;;;;;;20.92;13.23;;;;;;;;;;10284224;28;20072;-57
2021/06/04 17:28:54;;;;;;;14.27;9.98;;;;;;;;;;10290125;28;20329;-57
2021/06/04 17:33:53;;;;;;;16.73;9.02;;;;;;;;;;10305649;28;20486;-55
2021/06/04 17:38:52;;;;;;;5.00;4.50;;;;;;;;;;10282505;28;20079;-56
2021/06/04 17:43:50;;;;;;;13.20;9.63;;;;;;;;;;10270861;28;20069;-55
2021/06/04 17:48:48;;;;;;;14.10;6.50;;;;;;;;;;10273026;28;20080;-54
2021/06/04 17:53:46;;;;;;;10.00;5.35;;;;;;;;;;10274269;28;20081;-52
2021/06/04 17:58:46;;;;;;;13.25;6.00;;;;;;;;;;10274390;28;20049;-56
2021/06/04 18:03:44;;;;;;;8.60;4.45;;;;;;;;;;10274318;28;20048;-56
2021/06/04 18:08:42;;;;;;;9.57;4.40;;;;;;;;;;10280805;28;20084;-58
2021/06/04 18:13:39;;;;;;;7.25;3.45;;;;;;;;;;10281853;28;20076;-55
2021/06/04 18:18:39;;;;;;;7.05;3.65;;;;;;;;;;10282382;28;20083;-56
2021/06/04 18:23:37;;;;;;;6.18;3.60;;;;;;;;;;10281804;28;20041;-55
2021/06/04 18:28:35;;;;;;;8.77;4.05;;;;;;;;;;10280470;28;20056;-55
2021/06/04 18:33:34;;;;;;;9.23;4.78;;;;;;;;;;10280900;28;20089;-56
2021/06/04 18:38:35;;;;;;;14.60;7.05;;;;;;;;;;10281282;28;20486;-55
2021/06/04 18:43:37;;;;;;;8.88;6.20;;;;;;;;;;10279927;28;20421;-57
2021/06/04 18:48:36;;;;;;;9.43;4.10;;;;;;;;;;10281039;28;20084;-54
2021/06/04 18:53:35;;;;;;;8.23;3.45;;;;;;;;;;10280533;28;20111;-56
2021/06/04 18:58:33;;;;;;;11.70;3.90;;;;;;;;;;10278530;28;20056;-55
2021/06/04 19:03:32;;;;;;;7.40;3.70;;;;;;;;;;10280601;28;20518;-54
2021/06/04 19:08:30;;;;;;;8.07;3.60;;;;;;;;;;10278316;28;20052;-56
2021/06/04 19:13:29;;;;;;;8.38;3.65;;;;;;;;;;10279597;28;20079;-53
2021/06/04 19:18:27;;;;;;;6.72;4.22;;;;;;;;;;10278387;28;20091;-53
2021/06/04 19:23:25;;;;;;;7.88;4.50;;;;;;;;;;10279302;28;20045;-55
2021/06/04 19:28:23;;;;;;;10.52;4.50;;;;;;;;;;10278809;28;20535;-55
2021/06/04 19:33:24;;;;;;;5.63;3.85;;;;;;;;;;10278754;28;20096;-55
2021/06/04 19:38:24;;;;;;;8.38;4.85;;;;;;;;;;10277154;28;20053;-55
2021/06/04 19:43:23;;;;;;;5.47;3.20;;;;;;;;;;10278693;28;20502;-57
2021/06/04 19:48:21;;;;;;;6.40;3.50;;;;;;;;;;10278069;28;20037;-56
2021/06/04 19:53:20;;;;;;;5.88;3.42;;;;;;;;;;10278063;28;20522;-56
2021/06/04 19:58:19;;;;;;;6.75;4.15;;;;;;;;;;10276598;28;20048;-56
2021/06/04 20:03:18;;;;;;;9.20;3.58;;;;;;;;;;10277895;28;20041;-54
2021/06/04 20:08:16;;;;;;;6.43;3.38;;;;;;;;;;10278053;28;20079;-56
2021/06/04 20:13:17;;;;;;;6.22;3.63;;;;;;;;;;10277065;28;20087;-56
2021/06/04 20:18:17;;;;;;;6.03;3.47;;;;;;;;;;10277813;28;20436;-56
2021/06/04 20:23:15;;;;;;;13.38;4.38;;;;;;;;;;10277292;28;20040;-57
2021/06/04 20:28:14;;;;;;;16.52;4.38;;;;;;;;;;10276863;28;20045;-57
2021/06/04 20:33:14;;;;;;;9.30;3.60;;;;;;;;;;10276296;28;20115;-56
2021/06/04 20:38:12;;;;;;;7.68;3.45;;;;;;;;;;10276712;28;20049;-56
2021/06/04 20:43:10;;;;;;;8.35;4.15;;;;;;;;;;10276438;28;20278;-56
2021/06/04 20:48:09;;;;;;;4.90;3.90;;;;;;;;;;10276258;28;20049;-56
2021/06/04 20:53:12;;;;;;;15.00;4.10;;;;;;;;;;10275725;28;20502;-56
2021/06/04 20:58:10;;;;;;;8.20;3.13;;;;;;;;;;10275961;28;20045;-55
2021/06/04 21:03:08;;;;;;;7.80;4.10;;;;;;;;;;10275595;28;20052;-56
2021/06/04 21:08:06;;;;;;;5.80;3.10;;;;;;;;;;10275534;28;20068;-57
2021/06/04 21:13:06;;;;;;;4.18;3.25;;;;;;;;;;10274313;28;20466;-56
2021/06/04 21:18:04;;;;;;;6.38;3.90;;;;;;;;;;10274793;28;20081;-56
2021/06/04 21:23:05;;;;;;;12.15;4.35;;;;;;;;;;10274937;28;20048;-57
2021/06/04 21:28:03;;;;;;;4.30;3.22;;;;;;;;;;10273812;28;20384;-56
2021/06/04 21:33:05;;;;;;;9.88;3.88;;;;;;;;;;10274323;28;20092;-56
2021/06/04 21:38:03;;;;;;;8.13;3.83;;;;;;;;;;10274187;28;20406;-55
2021/06/04 21:43:01;;;;;;;7.45;4.40;;;;;;;;;;10273781;28;20061;-56
2021/06/04 21:48:04;;;;;;;14.68;4.63;;;;;;;;;;10272997;28;20494;-56
2021/06/04 21:53:02;;;;;;;9.13;4.00;;;;;;;;;;10289289;28;20068;-55
2021/06/04 21:58:01;;;;;;;9.27;4.85;;;;;;;;;;10301405;28;20049;-54
2021/06/04 22:02:59;;;;;;;6.88;3.58;;;;;;;;;;10311321;28;20079;-56
2021/06/04 22:07:59;;;;;;;7.32;4.63;;;;;;;;;;10313836;28;20401;-54
2021/06/04 22:12:57;;;;;;;14.63;4.93;;;;;;;;;;10313900;28;20088;-55
2021/06/04 22:17:56;;;;;;;6.78;5.07;;;;;;;;;;10314226;28;20430;-53
2021/06/04 22:22:54;;;;;;;8.07;4.15;;;;;;;;;;10314138;28;20107;-56
2021/06/04 22:27:54;;;;;;;9.95;4.10;;;;;;;;;;10306748;28;20068;-57
2021/06/04 22:32:52;;;;;;;14.15;6.10;;;;;;;;;;10274282;28;20084;-50
2021/06/04 22:37:51;;;;;;;10.20;4.03;;;;;;;;;;10274551;28;20055;-55
2021/06/04 22:42:49;;;;;;;8.07;4.20;;;;;;;;;;10274490;28;20072;-57
2021/06/04 22:47:48;;;;;;;10.07;4.00;;;;;;;;;;10274443;28;20091;-57
2021/06/04 22:52:46;;;;;;;10.98;4.63;;;;;;;;;;10275721;28;20073;-56
2021/06/04 22:57:44;;;;;;;9.15;4.72;;;;;;;;;;10281572;28;20084;-57
2021/06/04 23:02:42;;;;;;;12.57;4.40;;;;;;;;;;10279881;28;20041;-57
2021/06/04 23:07:41;;;;;;;9.93;4.28;;;;;;;;;;10281508;28;20041;-56
2021/06/04 23:12:39;;;;;;;5.70;4.00;;;;;;;;;;10280930;28;20073;-56
2021/06/04 23:17:37;;;;;;;10.10;4.47;;;;;;;;;;10280973;28;20053;-56
2021/06/04 23:22:35;;;;;;;11.13;4.15;;;;;;;;;;10280705;28;20041;-56
2021/06/04 23:27:35;;;;;;;9.35;3.92;;;;;;;;;;10280226;28;20041;-56
2021/06/04 23:32:32;;;;;;;10.05;3.80;;;;;;;;;;10280191;28;20077;-57
2021/06/04 23:37:30;;;;;;;8.52;4.00;;;;;;;;;;10279799;28;20041;-56
2021/06/04 23:42:28;;;;;;;7.47;4.00;;;;;;;;;;10279880;28;20045;-54
2021/06/04 23:47:27;;;;;;;8.32;4.40;;;;;;;;;;10279774;28;20081;-56
2021/06/04 23:52:27;;;;;;;6.00;3.78;;;;;;;;;;10279236;28;20085;-56
2021/06/04 23:57:25;;;;;;;4.93;4.22;;;;;;;;;;10278251;28;20064;-56
